Time;durP1;ratioP1;P1;durP2;ratioP2;P2;SDS_P1;SDS_P2;PMS_P1;PMS_P2;Temp;Humidity;BMP_temperature;BMP_pressure;BME280_temperature;BME280_humidity;BME280_pressure;Samples;Min_cycle;Max_cycle;Signal;HPM_P1;HPM_P2
2022/01/29 00:01:32;;;;;;;50.42;34.78;;;7.20;99.90;;;;;;4951331;28;20065;-45
2022/01/29 00:03:58;;;;;;;49.35;36.88;;;7.20;99.90;;;;;;4955669;28;20043;-45
2022/01/29 00:06:24;;;;;;;45.05;33.15;;;7.20;99.90;;;;;;4954583;28;20262;-43
2022/01/29 00:08:53;;;;;;;51.95;37.85;;;7.20;99.90;;;;;;4972827;28;20039;-44
2022/01/29 00:11:20;;;;;;;51.55;37.42;;;7.20;99.90;;;;;;4956896;28;20039;-46
2022/01/29 00:13:46;;;;;;;56.22;39.70;;;7.20;99.90;;;;;;4964518;28;20133;-45
2022/01/29 00:16:12;;;;;;;55.78;38.67;;;7.20;99.90;;;;;;4958906;28;20501;-44
2022/01/29 00:18:38;;;;;;;53.65;39.70;;;7.20;99.90;;;;;;4962824;28;20040;-44
2022/01/29 00:21:04;;;;;;;57.42;41.80;;;7.20;99.90;;;;;;4984457;28;20051;-45
2022/01/29 00:23:30;;;;;;;57.92;43.80;;;7.20;99.90;;;;;;4955511;28;20471;-46
2022/01/29 00:25:57;;;;;;;60.80;40.65;;;7.10;99.90;;;;;;4932408;28;20047;-44
2022/01/29 00:28:23;;;;;;;60.60;44.97;;;7.10;99.90;;;;;;4966732;28;20483;-44
2022/01/29 00:30:49;;;;;;;55.78;41.08;;;7.10;99.90;;;;;;4946363;28;20055;-47
2022/01/29 00:33:15;;;;;;;56.38;42.17;;;7.10;99.90;;;;;;4962357;28;20069;-46
2022/01/29 00:35:41;;;;;;;61.47;46.40;;;7.10;99.90;;;;;;4961808;28;20556;-44
2022/01/29 00:38:07;;;;;;;62.60;43.70;;;7.10;99.90;;;;;;4972077;28;20085;-46
2022/01/29 00:40:36;;;;;;;65.65;45.35;;;7.00;99.90;;;;;;4969546;28;20050;-47
2022/01/29 00:43:04;;;;;;;63.10;48.38;;;7.00;99.90;;;;;;4975936;28;20065;-60
2022/01/29 00:45:31;;;;;;;63.88;47.65;;;7.00;99.90;;;;;;4980336;28;20449;-60
2022/01/29 00:47:57;;;;;;;66.15;46.35;;;6.90;99.90;;;;;;4946873;28;20059;-44
2022/01/29 00:50:24;;;;;;;69.00;48.03;;;6.90;99.90;;;;;;4955933;28;20043;-50
2022/01/29 00:52:50;;;;;;;68.72;48.17;;;6.80;99.90;;;;;;4938635;28;20546;-48
2022/01/29 00:55:16;;;;;;;68.40;47.10;;;6.80;99.90;;;;;;4970281;28;20066;-45
2022/01/29 00:57:43;;;;;;;73.57;51.15;;;6.80;99.90;;;;;;5006176;28;20054;-44
2022/01/29 01:00:14;;;;;;;72.05;48.35;;;6.80;99.90;;;;;;4948211;28;20184;-44
2022/01/29 01:02:40;;;;;;;64.63;49.20;;;6.80;99.90;;;;;;4989278;28;20502;-45
2022/01/29 01:05:07;;;;;;;68.60;48.13;;;6.80;99.90;;;;;;4951968;28;20046;-46
2022/01/29 01:07:33;;;;;;;66.32;48.80;;;6.80;99.90;;;;;;4958879;28;20061;-44
2022/01/29 01:09:59;;;;;;;64.88;48.05;;;6.80;99.90;;;;;;5003059;28;20044;-60
2022/01/29 01:12:26;;;;;;;68.03;48.08;;;6.80;99.90;;;;;;4982771;28;20097;-60
2022/01/29 01:14:52;;;;;;;70.50;47.63;;;6.80;99.90;;;;;;4946853;28;20165;-47
2022/01/29 01:17:20;;;;;;;74.28;50.22;;;6.80;99.90;;;;;;4947100;28;20088;-59
2022/01/29 01:19:47;;;;;;;64.55;47.22;;;6.80;99.90;;;;;;4943404;28;20053;-44
2022/01/29 01:22:15;;;;;;;65.68;48.30;;;6.80;99.90;;;;;;4977630;28;20051;-60
2022/01/29 01:24:41;;;;;;;67.18;47.83;;;6.80;99.90;;;;;;4946489;28;20047;-48
2022/01/29 01:27:07;;;;;;;68.80;46.97;;;6.90;99.90;;;;;;4954687;28;20117;-45
2022/01/29 01:29:33;;;;;;;65.55;46.47;;;6.80;99.90;;;;;;4968940;28;20122;-60
2022/01/29 01:31:59;;;;;;;70.68;48.25;;;6.80;99.90;;;;;;4949663;28;20055;-60
2022/01/29 01:34:31;;;;;;;68.95;44.95;;;6.80;99.90;;;;;;4982894;28;20054;-60
2022/01/29 01:37:02;;;;;;;75.85;48.75;;;6.80;99.90;;;;;;4948444;28;20051;-59
2022/01/29 01:39:32;;;;;;;;;;;6.80;99.90;;;;;;4958892;28;20038;-59
2022/01/29 01:42:06;;;;;;;63.17;45.22;;;6.90;99.90;;;;;;4958748;28;20343;-59
2022/01/29 01:44:46;;;;;;;67.15;45.50;;;6.90;99.90;;;;;;4957022;28;20619;-60
2022/01/29 01:47:14;;;;;;;71.22;45.22;;;6.90;99.90;;;;;;4934306;28;20130;-43
2022/01/29 01:49:40;;;;;;;72.78;47.20;;;6.90;99.90;;;;;;4963913;28;20051;-59
2022/01/29 01:52:09;;;;;;;65.95;46.17;;;6.90;99.90;;;;;;4943939;28;20063;-45
2022/01/29 01:54:35;;;;;;;71.13;45.83;;;6.90;99.90;;;;;;4947102;28;20053;-44
2022/01/29 01:57:02;;;;;;;69.40;46.00;;;6.90;99.90;;;;;;4949082;28;20078;-45
2022/01/29 01:59:29;;;;;;;72.10;46.00;;;6.90;99.90;;;;;;4946884;28;20336;-46
2022/01/29 02:01:55;;;;;;;68.13;47.28;;;6.90;99.90;;;;;;4948046;28;20089;-60
2022/01/29 02:04:21;;;;;;;71.35;47.35;;;6.90;99.90;;;;;;4949356;28;20051;-60
2022/01/29 02:06:50;;;;;;;76.63;46.53;;;6.90;99.90;;;;;;4958467;28;20059;-45
2022/01/29 02:09:19;;;;;;;71.18;46.58;;;6.90;99.90;;;;;;4963354;28;20047;-60
2022/01/29 02:11:51;;;;;;;83.65;49.45;;;6.90;99.90;;;;;;4966024;28;20528;-60
2022/01/29 02:14:24;;;;;;;78.18;48.20;;;7.00;99.90;;;;;;4966413;28;20491;-60
2022/01/29 02:16:51;;;;;;;68.50;46.85;;;7.00;99.90;;;;;;4948923;28;20039;-45
2022/01/29 02:19:17;;;;;;;76.00;48.03;;;7.00;99.90;;;;;;4955501;28;20505;-60
2022/01/29 02:21:43;;;;;;;76.82;48.10;;;7.00;99.90;;;;;;4981472;28;20043;-60
2022/01/29 02:24:09;;;;;;;77.88;47.58;;;7.00;99.90;;;;;;4958870;28;20054;-60
2022/01/29 02:26:35;;;;;;;76.78;46.80;;;7.00;99.90;;;;;;4959314;28;20546;-60
2022/01/29 02:29:02;;;;;;;76.53;47.13;;;7.00;99.90;;;;;;4961680;28;20382;-46
2022/01/29 02:31:28;;;;;;;82.00;47.78;;;7.00;99.90;;;;;;4955782;28;20047;-45
2022/01/29 02:33:54;;;;;;;78.13;46.63;;;7.00;99.90;;;;;;4959306;28;20070;-60
2022/01/29 02:36:20;;;;;;;80.82;48.13;;;7.00;99.90;;;;;;4944447;28;20226;-60
2022/01/29 02:38:46;;;;;;;78.88;48.75;;;7.10;99.90;;;;;;4934975;28;20042;-60
2022/01/29 02:41:12;;;;;;;78.70;46.35;;;7.10;99.90;;;;;;4975754;28;20122;-60
2022/01/29 02:43:47;;;;;;;77.05;46.25;;;7.10;99.90;;;;;;4966581;28;20473;-60
2022/01/29 02:48:54;;;;;;;79.03;45.95;;;7.10;99.90;;;;;;4957923;28;20047;-60
2022/01/29 02:51:20;;;;;;;80.13;46.67;;;7.10;99.90;;;;;;4987848;28;20078;-60
2022/01/29 02:53:47;;;;;;;69.75;44.58;;;7.20;99.90;;;;;;4959885;28;20449;-60
2022/01/29 02:56:13;;;;;;;80.30;46.28;;;7.20;99.90;;;;;;5048997;28;20052;-60
2022/01/29 02:58:39;;;;;;;74.40;44.17;;;7.30;99.90;;;;;;4974053;28;20141;-60
2022/01/29 03:01:07;;;;;;;76.68;43.95;;;7.30;99.90;;;;;;4956567;28;20066;-60
2022/01/29 03:03:33;;;;;;;79.47;43.65;;;7.30;99.90;;;;;;4971143;28;20490;-60
2022/01/29 03:06:02;;;;;;;76.00;45.55;;;7.30;99.90;;;;;;4947588;28;20157;-60
2022/01/29 03:08:28;;;;;;;81.20;47.53;;;7.40;99.90;;;;;;4946568;28;20945;-60
2022/01/29 03:10:54;;;;;;;75.07;44.55;;;7.40;99.90;;;;;;4991570;28;20082;-60
2022/01/29 03:13:20;;;;;;;71.75;43.00;;;7.40;99.90;;;;;;4963980;28;20941;-60
2022/01/29 03:15:46;;;;;;;69.72;42.13;;;7.40;99.90;;;;;;4964776;28;20054;-60
2022/01/29 03:18:12;;;;;;;71.28;42.28;;;7.40;99.90;;;;;;4944246;28;20055;-60
2022/01/29 03:20:39;;;;;;;70.18;41.22;;;7.40;99.90;;;;;;4962295;28;20063;-60
2022/01/29 03:23:05;;;;;;;78.30;42.85;;;7.40;99.90;;;;;;4953515;28;20134;-60
2022/01/29 03:25:31;;;;;;;68.90;42.97;;;7.50;99.90;;;;;;4953644;28;20486;-60
2022/01/29 03:27:57;;;;;;;72.53;41.63;;;7.50;99.90;;;;;;4967206;28;20736;-60
2022/01/29 03:30:23;;;;;;;63.58;38.33;;;7.50;99.90;;;;;;4932962;28;20043;-60
2022/01/29 03:32:49;;;;;;;63.95;39.65;;;7.50;99.90;;;;;;4956504;28;20706;-60
2022/01/29 03:35:16;;;;;;;70.43;41.08;;;7.50;99.90;;;;;;4961103;28;20504;-60
2022/01/29 03:37:42;;;;;;;69.50;37.90;;;7.50;99.90;;;;;;4952160;28;20055;-60
2022/01/29 03:40:08;;;;;;;68.88;38.83;;;7.50;99.90;;;;;;4966349;28;20041;-60
2022/01/29 03:42:43;;;;;;;66.78;39.55;;;7.60;99.90;;;;;;4950952;28;20112;-60
2022/01/29 03:45:10;;;;;;;70.07;39.58;;;7.60;99.90;;;;;;4951881;28;20126;-60
2022/01/29 03:47:36;;;;;;;61.35;36.50;;;7.70;99.90;;;;;;4971101;28;20049;-60
2022/01/29 03:50:03;;;;;;;59.55;38.42;;;7.70;99.90;;;;;;4963212;28;20567;-60
2022/01/29 03:52:29;;;;;;;63.03;36.50;;;7.70;99.90;;;;;;4959084;28;20391;-60
2022/01/29 03:54:55;;;;;;;57.08;34.80;;;7.70;99.90;;;;;;4955948;28;20054;-45
2022/01/29 03:57:21;;;;;;;60.80;34.95;;;7.80;99.90;;;;;;4969594;28;20051;-60
2022/01/29 03:59:47;;;;;;;62.65;34.20;;;7.80;99.90;;;;;;4960089;28;20481;-60
2022/01/29 04:02:13;;;;;;;57.15;34.15;;;7.80;99.90;;;;;;4959032;28;20124;-45
2022/01/29 04:04:40;;;;;;;55.95;34.38;;;7.80;99.90;;;;;;4955464;28;20398;-46
2022/01/29 04:07:10;;;;;;;56.85;34.38;;;7.80;99.90;;;;;;4960926;28;20521;-47
2022/01/29 04:09:37;;;;;;;60.83;35.55;;;7.80;99.90;;;;;;4991575;28;20110;-46
2022/01/29 04:12:03;;;;;;;66.85;36.15;;;7.90;99.90;;;;;;4976161;28;20069;-45
2022/01/29 04:14:37;;;;;;;55.70;33.85;;;7.90;99.90;;;;;;4957406;28;20495;-60
2022/01/29 04:17:04;;;;;;;56.33;36.22;;;7.90;99.90;;;;;;4957184;28;20064;-60
2022/01/29 04:19:31;;;;;;;53.40;34.22;;;8.00;99.90;;;;;;4955131;28;20468;-60
2022/01/29 04:21:58;;;;;;;53.00;32.55;;;8.00;99.90;;;;;;4939436;28;20062;-60
2022/01/29 04:24:24;;;;;;;56.03;33.88;;;8.00;99.90;;;;;;4965341;28;20502;-60
2022/01/29 04:26:50;;;;;;;59.45;34.85;;;8.00;99.90;;;;;;4967039;28;20063;-44
2022/01/29 04:29:17;;;;;;;52.38;31.50;;;8.00;99.90;;;;;;4979022;28;20398;-44
2022/01/29 04:32:44;;;;;;;55.95;33.58;;;8.00;99.90;;;;;;4957722;28;20159;-46
2022/01/29 04:34:29;;;;;;;52.10;31.38;;;8.00;99.90;;;;;;4941735;28;20487;-60
2022/01/29 04:36:55;;;;;;;49.78;32.03;;;8.00;99.90;;;;;;4949365;28;20047;-60
2022/01/29 04:39:21;;;;;;;47.22;31.92;;;8.00;99.90;;;;;;4957374;28;20047;-47
2022/01/29 04:41:48;;;;;;;48.80;32.88;;;8.00;99.90;;;;;;4946441;28;20142;-59
2022/01/29 04:44:14;;;;;;;49.00;31.42;;;8.10;99.90;;;;;;4972694;28;20047;-45
2022/01/29 04:46:40;;;;;;;51.25;30.17;;;8.10;99.90;;;;;;4933991;28;20058;-60
2022/01/29 04:49:06;;;;;;;55.58;33.70;;;8.10;99.90;;;;;;4958933;28;20051;-59
2022/01/29 04:51:32;;;;;;;52.08;31.67;;;8.10;99.90;;;;;;4947856;28;20043;-48
2022/01/29 04:53:58;;;;;;;50.85;31.27;;;8.10;99.90;;;;;;4955100;28;20107;-59
2022/01/29 04:56:24;;;;;;;48.53;30.35;;;8.10;99.90;;;;;;4972616;28;20532;-60
2022/01/29 04:58:50;;;;;;;45.75;30.58;;;8.10;99.90;;;;;;4957959;28;20571;-60
2022/01/29 05:01:17;;;;;;;51.63;32.13;;;8.10;99.90;;;;;;4955044;28;20293;-60
2022/01/29 05:03:43;;;;;;;45.42;29.08;;;8.10;99.90;;;;;;4966802;28;20043;-60
2022/01/29 05:06:10;;;;;;;46.22;30.48;;;8.00;99.90;;;;;;4944405;28;20043;-60
2022/01/29 05:08:37;;;;;;;49.15;30.83;;;8.20;99.90;;;;;;4945709;28;20113;-60
2022/01/29 05:11:04;;;;;;;41.95;29.42;;;8.10;99.90;;;;;;4986391;28;20081;-44
2022/01/29 05:13:31;;;;;;;52.05;29.92;;;8.20;99.90;;;;;;4957318;28;20752;-44
2022/01/29 05:16:13;;;;;;;45.15;29.92;;;8.20;99.90;;;;;;4957989;28;20049;-60
2022/01/29 05:27:04;;;;;;;40.70;29.35;;;8.20;99.90;;;;;;4951315;28;20059;-60
2022/01/29 05:29:32;;;;;;;44.17;30.55;;;8.20;99.90;;;;;;4954203;28;20097;-60
2022/01/29 05:31:59;;;;;;;40.45;29.98;;;8.20;99.90;;;;;;4952612;28;20050;-45
2022/01/29 05:34:26;;;;;;;46.08;28.88;;;8.30;99.90;;;;;;4945041;28;20127;-60
2022/01/29 05:36:53;;;;;;;50.47;29.73;;;8.30;99.90;;;;;;4959867;28;20043;-60
2022/01/29 05:39:21;;;;;;;43.20;29.10;;;8.30;99.90;;;;;;4959872;28;20073;-60
2022/01/29 05:41:47;;;;;;;41.50;29.40;;;8.20;99.90;;;;;;4946095;28;20101;-60
2022/01/29 05:44:13;;;;;;;42.17;28.92;;;8.30;99.90;;;;;;4976056;28;20057;-60
2022/01/29 05:46:39;;;;;;;43.38;28.77;;;8.30;99.90;;;;;;4947961;28;20174;-60
2022/01/29 05:49:06;;;;;;;42.13;28.27;;;8.30;99.90;;;;;;4959028;28;20136;-60
2022/01/29 05:51:32;;;;;;;46.78;28.25;;;8.30;99.90;;;;;;4941839;28;20550;-60
2022/01/29 05:53:59;;;;;;;36.65;26.65;;;8.30;99.90;;;;;;4942846;28;20176;-60
2022/01/29 05:56:26;;;;;;;41.47;27.30;;;8.30;99.90;;;;;;4928494;28;20066;-60
2022/01/29 05:58:52;;;;;;;38.88;27.88;;;8.30;99.90;;;;;;4942873;28;20449;-60
2022/01/29 06:01:18;;;;;;;38.60;28.75;;;8.30;99.90;;;;;;4943631;28;20055;-60
2022/01/29 06:03:45;;;;;;;40.58;26.17;;;8.40;99.90;;;;;;4952480;28;20058;-60
2022/01/29 06:06:11;;;;;;;41.25;29.92;;;8.40;99.90;;;;;;4954505;28;20204;-60
2022/01/29 06:08:37;;;;;;;36.72;27.70;;;8.40;99.90;;;;;;4981571;28;20088;-60
2022/01/29 06:11:03;;;;;;;38.17;27.67;;;8.40;99.90;;;;;;4955146;28;20499;-60
2022/01/29 06:13:29;;;;;;;39.97;27.67;;;8.40;99.90;;;;;;4953500;28;20410;-60
2022/01/29 06:15:56;;;;;;;40.30;27.55;;;8.40;99.90;;;;;;4951604;28;20043;-60
2022/01/29 06:18:23;;;;;;;40.25;28.30;;;8.40;99.90;;;;;;4945768;28;20058;-60
2022/01/29 06:20:51;;;;;;;39.97;26.98;;;8.40;99.90;;;;;;4948383;28;20059;-60
2022/01/29 06:23:21;;;;;;;39.83;27.65;;;8.40;99.90;;;;;;4954149;28;20402;-60
2022/01/29 06:25:47;;;;;;;36.63;25.65;;;8.50;99.90;;;;;;4983724;28;20050;-60
2022/01/29 06:28:14;;;;;;;38.75;25.98;;;8.50;99.90;;;;;;4953123;28;20140;-60
2022/01/29 06:30:40;;;;;;;33.63;25.17;;;8.50;99.90;;;;;;4954936;28;20078;-60
2022/01/29 06:33:11;;;;;;;34.67;22.88;;;8.50;99.90;;;;;;4957774;28;20107;-60
2022/01/29 06:35:38;;;;;;;33.53;22.87;;;8.50;99.90;;;;;;4959681;28;20055;-60
2022/01/29 06:38:09;;;;;;;34.33;21.70;;;8.60;99.90;;;;;;4968396;28;20064;-60
2022/01/29 06:40:36;;;;;;;33.53;21.95;;;8.50;99.90;;;;;;4965278;28;20042;-60
2022/01/29 06:43:04;;;;;;;30.33;21.63;;;8.60;99.90;;;;;;4956924;28;20050;-60
2022/01/29 06:45:34;;;;;;;37.95;22.50;;;8.60;99.90;;;;;;4987594;28;20054;-60
2022/01/29 06:48:00;;;;;;;31.35;19.27;;;8.60;99.90;;;;;;4967328;28;20449;-59
2022/01/29 06:50:27;;;;;;;30.27;19.00;;;8.60;99.90;;;;;;4942804;28;20042;-58
2022/01/29 06:52:53;;;;;;;26.75;19.30;;;8.60;99.90;;;;;;4961638;28;20093;-59
2022/01/29 06:55:20;;;;;;;29.60;16.77;;;8.60;99.90;;;;;;4961255;28;20431;-61
2022/01/29 06:57:46;;;;;;;28.33;18.85;;;8.70;99.90;;;;;;4974725;28;20418;-60
2022/01/29 07:00:13;;;;;;;23.17;16.85;;;8.70;99.90;;;;;;4950499;28;20067;-60
2022/01/29 07:02:39;;;;;;;24.77;18.10;;;8.70;99.90;;;;;;4955724;28;20803;-60
2022/01/29 07:05:07;;;;;;;23.48;17.45;;;8.70;99.90;;;;;;4971795;28;20410;-46
2022/01/29 07:07:33;;;;;;;25.50;17.02;;;8.70;99.90;;;;;;4961686;28;20112;-47
2022/01/29 07:09:59;;;;;;;23.58;16.58;;;8.80;99.90;;;;;;4968240;28;20096;-45
2022/01/29 07:12:26;;;;;;;24.50;16.50;;;8.80;99.90;;;;;;4965885;28;20047;-44
2022/01/29 07:14:52;;;;;;;26.65;17.55;;;8.80;99.90;;;;;;4970122;28;20125;-48
2022/01/29 07:17:22;;;;;;;28.92;18.20;;;8.80;99.90;;;;;;4959425;28;20113;-46
2022/01/29 07:19:52;;;;;;;24.35;16.33;;;8.90;99.90;;;;;;4960636;28;20047;-50
2022/01/29 07:22:19;;;;;;;28.73;18.10;;;8.80;99.90;;;;;;4960035;28;20046;-47
2022/01/29 07:24:46;;;;;;;25.23;17.08;;;8.80;99.90;;;;;;4966106;28;20042;-61
2022/01/29 07:27:13;;;;;;;22.30;17.48;;;8.80;99.90;;;;;;4958965;28;20054;-60
2022/01/29 07:29:40;;;;;;;25.63;17.55;;;8.90;99.90;;;;;;4985148;28;20041;-61
2022/01/29 07:32:07;;;;;;;23.80;18.10;;;8.90;99.90;;;;;;5066959;28;20052;-60
2022/01/29 07:34:33;;;;;;;24.73;17.80;;;8.90;99.90;;;;;;5006293;28;20048;-60
2022/01/29 07:37:00;;;;;;;26.38;17.48;;;8.90;99.90;;;;;;5066092;28;20078;-60
2022/01/29 07:39:28;;;;;;;26.85;17.85;;;8.90;99.90;;;;;;5049598;28;20412;-60
2022/01/29 07:41:55;;;;;;;27.45;18.85;;;8.90;99.90;;;;;;4992554;28;20049;-60
2022/01/29 07:44:23;;;;;;;31.38;18.27;;;8.80;99.90;;;;;;5032409;28;20064;-60
2022/01/29 07:46:50;;;;;;;29.95;19.55;;;8.80;99.90;;;;;;5019304;28;20112;-60
2022/01/29 07:49:16;;;;;;;29.45;21.08;;;8.80;99.90;;;;;;5014842;28;20055;-60
2022/01/29 07:51:42;;;;;;;27.73;20.02;;;8.70;99.90;;;;;;5023648;28;20042;-60
2022/01/29 07:54:08;;;;;;;36.03;18.77;;;8.70;99.90;;;;;;4967734;28;20518;-60
2022/01/29 07:56:35;;;;;;;28.23;18.23;;;8.70;99.90;;;;;;4947176;28;20055;-60
2022/01/29 07:59:02;;;;;;;27.10;21.35;;;8.70;99.90;;;;;;4970102;28;20540;-61
2022/01/29 08:01:29;;;;;;;32.72;21.33;;;8.70;99.90;;;;;;5032427;28;20094;-60
2022/01/29 08:03:55;;;;;;;34.95;20.70;;;8.70;99.90;;;;;;4982083;28;20086;-60
2022/01/29 08:06:23;;;;;;;27.40;19.00;;;8.70;99.90;;;;;;5003837;28;20048;-60
2022/01/29 08:08:52;;;;;;;25.80;19.55;;;8.70;99.90;;;;;;4964374;28;20178;-60
2022/01/29 08:11:19;;;;;;;25.85;19.17;;;8.70;99.90;;;;;;4951595;28;20038;-46
2022/01/29 08:13:48;;;;;;;32.92;20.13;;;8.70;99.90;;;;;;4943521;28;20070;-45
2022/01/29 08:16:15;;;;;;;23.27;18.40;;;8.80;99.90;;;;;;4978495;28;21249;-47
2022/01/29 08:18:43;;;;;;;31.98;18.75;;;8.80;99.90;;;;;;4972653;28;20046;-45
2022/01/29 08:21:18;;;;;;;23.83;17.48;;;8.80;99.90;;;;;;4987227;28;20041;-46
2022/01/29 08:23:44;;;;;;;24.60;17.83;;;8.80;99.90;;;;;;5023700;28;20081;-44
2022/01/29 08:26:11;;;;;;;20.98;16.40;;;8.90;99.90;;;;;;5021610;28;20061;-48
2022/01/29 08:28:38;;;;;;;23.70;15.52;;;8.90;99.90;;;;;;4972253;28;20074;-51
2022/01/29 08:31:05;;;;;;;24.17;14.90;;;8.90;99.90;;;;;;4944327;28;20116;-45
2022/01/29 08:33:31;;;;;;;25.40;14.98;;;9.00;99.90;;;;;;4979595;28;20099;-61
2022/01/29 08:35:58;;;;;;;20.98;13.48;;;9.00;99.90;;;;;;4977202;28;20126;-45
2022/01/29 08:38:25;;;;;;;20.95;13.68;;;9.00;99.90;;;;;;5030845;28;20051;-49
2022/01/29 08:40:52;;;;;;;21.38;11.40;;;9.10;99.90;;;;;;4968154;28;20055;-45
2022/01/29 08:43:19;;;;;;;18.60;11.88;;;9.10;99.90;;;;;;5000390;28;20494;-45
2022/01/29 08:45:46;;;;;;;17.58;11.18;;;9.10;99.90;;;;;;4964995;28;20228;-45
2022/01/29 08:48:12;;;;;;;17.45;10.90;;;9.20;99.90;;;;;;5012345;28;20055;-47
2022/01/29 08:50:38;;;;;;;16.23;10.65;;;9.20;99.90;;;;;;5028290;28;20048;-60
2022/01/29 08:53:04;;;;;;;17.73;10.82;;;9.20;99.90;;;;;;4984174;28;20302;-46
2022/01/29 08:55:36;;;;;;;16.40;11.05;;;9.30;99.90;;;;;;4973128;28;20134;-46
2022/01/29 08:58:07;;;;;;;20.60;10.48;;;9.30;99.90;;;;;;4975118;28;20055;-47
2022/01/29 09:00:38;;;;;;;16.73;9.20;;;9.40;99.90;;;;;;5046587;28;20134;-46
2022/01/29 09:03:05;;;;;;;19.92;9.85;;;9.40;99.90;;;;;;4994873;28;20073;-47
2022/01/29 09:05:32;;;;;;;13.43;9.80;;;9.40;99.90;;;;;;4961983;28;20050;-47
2022/01/29 09:07:59;;;;;;;15.65;9.75;;;9.40;99.90;;;;;;4974269;28;20540;-46
2022/01/29 09:10:26;;;;;;;16.63;8.93;;;9.50;99.90;;;;;;4967777;28;20050;-49
2022/01/29 09:12:53;;;;;;;13.57;9.27;;;9.50;99.90;;;;;;4963413;28;20055;-51
2022/01/29 09:15:19;;;;;;;19.27;9.02;;;9.50;99.90;;;;;;4943570;28;20051;-47
2022/01/29 09:17:45;;;;;;;15.98;9.55;;;9.50;99.90;;;;;;4966588;28;20556;-46
2022/01/29 09:20:12;;;;;;;18.35;11.35;;;9.50;99.90;;;;;;4986334;28;20534;-47
2022/01/29 09:22:38;;;;;;;13.48;9.63;;;9.50;99.90;;;;;;4963908;28;20042;-46
2022/01/29 09:25:05;;;;;;;13.00;8.63;;;9.50;99.90;;;;;;4961332;28;20043;-46
2022/01/29 09:27:31;;;;;;;14.98;9.02;;;9.50;99.90;;;;;;5000362;28;20524;-46
2022/01/29 09:29:57;;;;;;;16.35;9.77;;;9.50;99.90;;;;;;4994589;28;20050;-47
2022/01/29 09:32:24;;;;;;;13.93;9.35;;;9.50;99.90;;;;;;4976107;28;20054;-47
2022/01/29 09:34:50;;;;;;;14.63;9.48;;;9.60;99.90;;;;;;4978359;28;20457;-48
2022/01/29 09:37:17;;;;;;;15.85;9.73;;;9.60;99.90;;;;;;4942744;29;20047;-47
2022/01/29 09:39:43;;;;;;;11.30;8.07;;;9.60;99.90;;;;;;4961619;28;20051;-45
2022/01/29 09:42:10;;;;;;;14.15;9.98;;;9.70;99.90;;;;;;4961556;28;20376;-61
2022/01/29 09:44:36;;;;;;;18.08;9.60;;;9.70;99.90;;;;;;4948516;28;20047;-61
2022/01/29 09:47:04;;;;;;;16.63;9.25;;;9.70;99.90;;;;;;4943197;28;20043;-61
2022/01/29 09:49:34;;;;;;;15.65;9.18;;;9.70;99.90;;;;;;4969566;28;20055;-61
2022/01/29 09:52:04;;;;;;;10.45;7.68;;;9.80;99.90;;;;;;4962377;28;20061;-46
2022/01/29 09:54:30;;;;;;;14.50;9.60;;;9.90;99.90;;;;;;4974043;28;20055;-45
2022/01/29 09:56:56;;;;;;;10.50;7.55;;;9.80;99.90;;;;;;4958296;28;20043;-47
2022/01/29 09:59:22;;;;;;;10.25;7.60;;;9.80;99.90;;;;;;4958532;28;20051;-61
2022/01/29 10:01:49;;;;;;;16.52;9.25;;;9.90;99.90;;;;;;5060619;28;20056;-62
2022/01/29 10:04:16;;;;;;;14.88;7.35;;;9.90;99.90;;;;;;5049129;28;20052;-60
2022/01/29 10:06:44;;;;;;;12.25;6.57;;;9.90;99.90;;;;;;4960856;28;20081;-61
2022/01/29 10:09:11;;;;;;;14.10;6.90;;;9.90;99.90;;;;;;4961075;28;20039;-44
2022/01/29 10:11:38;;;;;;;11.35;6.43;;;9.90;99.90;;;;;;5038889;28;20054;-48
2022/01/29 10:14:05;;;;;;;14.90;6.25;;;9.90;99.90;;;;;;4961501;28;20532;-47
2022/01/29 10:16:33;;;;;;;13.30;5.70;;;9.90;99.90;;;;;;4925898;29;20066;-46
2022/01/29 10:19:02;;;;;;;12.77;6.28;;;10.00;99.90;;;;;;4945999;28;20294;-47
2022/01/29 10:21:35;;;;;;;12.07;6.03;;;9.90;99.90;;;;;;4957213;28;20449;-48
2022/01/29 10:24:07;;;;;;;13.75;6.47;;;10.00;99.90;;;;;;4944844;28;20587;-46
2022/01/29 10:26:36;;;;;;;12.82;6.70;;;10.00;99.90;;;;;;4946020;28;20478;-48
2022/01/29 10:29:06;;;;;;;16.38;6.25;;;10.00;99.90;;;;;;4950721;28;20129;-45
2022/01/29 10:31:44;;;;;;;12.23;5.97;;;10.00;99.90;;;;;;4967873;28;20529;-45
2022/01/29 10:34:23;;;;;;;12.15;6.28;;;10.00;99.90;;;;;;4965264;28;20053;-46
2022/01/29 10:37:14;;;;;;;10.45;5.28;;;10.10;99.90;;;;;;4949212;28;20131;-45
2022/01/29 10:39:41;;;;;;;8.52;4.97;;;10.00;99.90;;;;;;4948433;28;20441;-46
2022/01/29 10:42:22;;;;;;;14.15;6.13;;;10.10;99.90;;;;;;4962704;28;20463;-44
2022/01/29 10:44:51;;;;;;;14.75;5.40;;;10.10;99.90;;;;;;5060483;28;20048;-46
2022/01/29 10:47:17;;;;;;;11.25;5.30;;;10.10;99.90;;;;;;5021117;28;20406;-47
2022/01/29 10:49:55;;;;;;;11.93;5.18;;;10.20;99.90;;;;;;4958260;28;20039;-45
2022/01/29 10:52:27;;;;;;;12.82;5.53;;;10.20;99.90;;;;;;4955046;28;20158;-45
2022/01/29 10:55:00;;;;;;;11.77;5.45;;;10.20;99.90;;;;;;4972123;28;20529;-45
2022/01/29 10:57:34;;;;;;;11.25;4.78;;;10.30;99.90;;;;;;4944296;28;20082;-60
2022/01/29 11:00:00;;;;;;;13.65;5.57;;;10.20;99.90;;;;;;4976905;28;20081;-61
2022/01/29 11:02:30;;;;;;;10.68;4.45;;;10.30;99.90;;;;;;4950785;28;20429;-60
2022/01/29 11:04:57;;;;;;;15.55;5.30;;;10.30;99.90;;;;;;4969387;28;20415;-61
2022/01/29 11:07:28;;;;;;;10.52;4.35;;;10.30;99.90;;;;;;4961227;28;20046;-60
2022/01/29 11:09:54;;;;;;;10.57;4.93;;;10.40;99.90;;;;;;4975335;28;20506;-45
2022/01/29 11:12:26;;;;;;;6.80;3.55;;;10.50;99.90;;;;;;4955661;28;20145;-48
2022/01/29 11:14:53;;;;;;;;;;;10.60;99.90;;;;;;4964354;28;20046;-61
2022/01/29 11:17:22;;;;;;;8.30;3.22;;;10.60;99.90;;;;;;4958351;28;20378;-61
2022/01/29 11:19:49;;;;;;;8.32;3.55;;;10.60;99.90;;;;;;4944737;28;20117;-61
2022/01/29 11:22:21;;;;;;;10.07;3.55;;;10.60;99.90;;;;;;4965991;28;20533;-61
2022/01/29 11:24:49;;;;;;;11.80;3.67;;;10.60;99.90;;;;;;4945937;28;20053;-61
2022/01/29 11:27:25;;;;;;;10.77;3.83;;;10.60;99.90;;;;;;4949090;28;20405;-61
2022/01/29 11:30:00;;;;;;;7.57;2.67;;;10.60;99.90;;;;;;4952810;28;20653;-61
2022/01/29 11:32:29;;;;;;;10.38;3.70;;;10.60;99.90;;;;;;4988511;28;20078;-61
2022/01/29 11:35:05;;;;;;;10.68;3.33;;;10.50;99.90;;;;;;4959681;28;20121;-61
2022/01/29 11:37:43;;;;;;;10.30;3.80;;;10.60;99.90;;;;;;4948555;28;20058;-61
2022/01/29 11:40:23;;;;;;;11.70;3.22;;;10.60;99.90;;;;;;4953139;28;20146;-62
2022/01/29 11:43:01;;;;;;;6.93;3.30;;;10.60;99.90;;;;;;4945799;28;20394;-61
2022/01/29 11:45:43;;;;;;;11.60;3.92;;;10.50;99.90;;;;;;4946663;28;20054;-61
2022/01/29 11:48:29;;;;;;;11.20;3.47;;;10.50;99.90;;;;;;5004647;28;20438;-61
2022/01/29 11:50:59;;;;;;;10.23;2.90;;;10.50;99.90;;;;;;5004931;28;20045;-50
2022/01/29 11:53:48;;;;;;;13.10;3.88;;;10.50;99.90;;;;;;4997813;28;20612;-47
2022/01/29 11:56:32;;;;;;;11.25;3.38;;;10.50;99.90;;;;;;5027912;28;20047;-49
2022/01/29 11:59:20;;;;;;;10.15;3.80;;;10.50;99.90;;;;;;4996957;28;20050;-50
2022/01/29 12:01:47;;;;;;;11.70;3.78;;;10.60;99.90;;;;;;5028898;28;20572;-46
2022/01/29 12:04:16;;;;;;;14.68;3.63;;;10.60;99.90;;;;;;4991057;28;20047;-50
2022/01/29 12:07:12;;;;;;;13.18;4.22;;;10.60;99.90;;;;;;4976452;28;20034;-48
2022/01/29 12:09:51;;;;;;;10.57;3.30;;;10.60;99.90;;;;;;5004643;28;20068;-47
2022/01/29 12:12:20;;;;;;;12.48;3.58;;;10.60;99.90;;;;;;4995107;28;20039;-46
2022/01/29 12:14:48;;;;;;;15.52;3.25;;;10.70;99.90;;;;;;5009600;28;20149;-45
2022/01/29 12:17:48;;;;;;;9.45;3.78;;;10.70;99.90;;;;;;5014890;28;20049;-46
2022/01/29 12:20:16;;;;;;;8.80;2.88;;;10.70;99.90;;;;;;5003960;28;20051;-49
2022/01/29 12:22:44;;;;;;;10.45;3.00;;;10.60;99.90;;;;;;4985904;28;20150;-46
2022/01/29 12:25:16;;;;;;;9.30;2.88;;;10.60;99.90;;;;;;4982774;28;20051;-45
2022/01/29 12:27:55;;;;;;;11.30;3.35;;;10.70;99.90;;;;;;5015365;28;20085;-45
2022/01/29 12:30:36;;;;;;;6.75;2.70;;;10.70;99.90;;;;;;4985922;28;20045;-45
2022/01/29 12:33:08;;;;;;;13.32;3.33;;;10.70;99.90;;;;;;4992050;28;20526;-45
2022/01/29 12:35:35;;;;;;;10.27;3.70;;;10.70;99.90;;;;;;5029607;28;20399;-46
2022/01/29 12:38:03;;;;;;;8.48;3.10;;;10.70;99.90;;;;;;5014131;28;20050;-60
2022/01/29 12:40:36;;;;;;;9.40;2.75;;;10.80;99.90;;;;;;5016185;28;20327;-51
2022/01/29 12:43:10;;;;;;;7.18;2.50;;;10.80;99.90;;;;;;4992892;28;20413;-49
2022/01/29 12:45:38;;;;;;;11.65;2.78;;;10.80;99.90;;;;;;4990806;28;20547;-60
2022/01/29 12:48:12;;;;;;;10.77;2.83;;;10.80;99.90;;;;;;5005457;28;20087;-60
2022/01/29 12:50:39;;;;;;;12.05;3.05;;;10.80;99.90;;;;;;4960051;28;20071;-60
2022/01/29 12:53:17;;;;;;;11.48;3.05;;;10.80;99.90;;;;;;4995570;28;20051;-47
2022/01/29 12:55:44;;;;;;;14.00;3.03;;;10.80;99.90;;;;;;5021298;28;20058;-45